sensor_id;sensor_type;location;lat;lon;timestamp;P1;durP1;ratioP1;P2;durP2;ratioP2
4885;SDS011;2457;51.788;6.136;2022-07-23T00:00:41;4.77;;;2.00;;
4885;SDS011;2457;51.788;6.136;2022-07-23T00:03:09;5.60;;;2.33;;
4885;SDS011;2457;51.788;6.136;2022-07-23T00:05:36;3.90;;;2.03;;
4885;SDS011;2457;51.788;6.136;2022-07-23T00:08:04;5.70;;;2.30;;
4885;SDS011;2457;51.788;6.136;2022-07-23T00:10:32;4.60;;;1.80;;
4885;SDS011;2457;51.788;6.136;2022-07-23T00:12:59;4.63;;;1.90;;
4885;SDS011;2457;51.788;6.136;2022-07-23T00:15:26;6.60;;;1.80;;
4885;SDS011;2457;51.788;6.136;2022-07-23T00:17:54;4.00;;;1.70;;
4885;SDS011;2457;51.788;6.136;2022-07-23T00:20:21;9.83;;;1.93;;
4885;SDS011;2457;51.788;6.136;2022-07-23T00:22:49;4.10;;;1.90;;
4885;SDS011;2457;51.788;6.136;2022-07-23T00:25:16;4.97;;;2.30;;
4885;SDS011;2457;51.788;6.136;2022-07-23T00:27:44;3.70;;;1.77;;
4885;SDS011;2457;51.788;6.136;2022-07-23T00:30:11;4.00;;;1.87;;
4885;SDS011;2457;51.788;6.136;2022-07-23T00:32:51;5.50;;;2.50;;
4885;SDS011;2457;51.788;6.136;2022-07-23T00:35:14;7.40;;;2.57;;
4885;SDS011;2457;51.788;6.136;2022-07-23T00:37:41;5.00;;;2.23;;
4885;SDS011;2457;51.788;6.136;2022-07-23T00:40:09;4.87;;;2.10;;
4885;SDS011;2457;51.788;6.136;2022-07-23T00:42:38;4.50;;;2.10;;
4885;SDS011;2457;51.788;6.136;2022-07-23T00:45:05;6.23;;;2.20;;
4885;SDS011;2457;51.788;6.136;2022-07-23T00:47:33;5.20;;;2.30;;
4885;SDS011;2457;51.788;6.136;2022-07-23T00:50:01;6.00;;;2.20;;
4885;SDS011;2457;51.788;6.136;2022-07-23T00:52:28;6.67;;;2.30;;
4885;SDS011;2457;51.788;6.136;2022-07-23T00:54:55;5.50;;;2.37;;
4885;SDS011;2457;51.788;6.136;2022-07-23T00:57:22;3.87;;;2.10;;
4885;SDS011;2457;51.788;6.136;2022-07-23T00:59:50;6.33;;;2.37;;
4885;SDS011;2457;51.788;6.136;2022-07-23T01:02:17;5.03;;;2.33;;
4885;SDS011;2457;51.788;6.136;2022-07-23T01:04:44;6.10;;;2.23;;
4885;SDS011;2457;51.788;6.136;2022-07-23T01:07:12;6.13;;;2.63;;
4885;SDS011;2457;51.788;6.136;2022-07-23T01:09:39;4.13;;;2.20;;
4885;SDS011;2457;51.788;6.136;2022-07-23T01:12:07;4.33;;;2.23;;
4885;SDS011;2457;51.788;6.136;2022-07-23T01:14:34;5.47;;;2.67;;
4885;SDS011;2457;51.788;6.136;2022-07-23T01:17:01;4.73;;;2.40;;
4885;SDS011;2457;51.788;6.136;2022-07-23T01:19:29;6.17;;;2.60;;
4885;SDS011;2457;51.788;6.136;2022-07-23T01:21:56;8.90;;;2.73;;
4885;SDS011;2457;51.788;6.136;2022-07-23T01:24:24;6.37;;;2.90;;
4885;SDS011;2457;51.788;6.136;2022-07-23T01:26:51;10.53;;;3.40;;
4885;SDS011;2457;51.788;6.136;2022-07-23T01:29:18;6.70;;;2.70;;
4885;SDS011;2457;51.788;6.136;2022-07-23T01:31:47;4.93;;;2.50;;
4885;SDS011;2457;51.788;6.136;2022-07-23T01:34:14;5.63;;;2.77;;
4885;SDS011;2457;51.788;6.136;2022-07-23T01:36:41;8.00;;;2.80;;
4885;SDS011;2457;51.788;6.136;2022-07-23T01:39:09;8.43;;;3.37;;
4885;SDS011;2457;51.788;6.136;2022-07-23T01:41:36;5.60;;;2.73;;
4885;SDS011;2457;51.788;6.136;2022-07-23T01:44:03;6.17;;;2.53;;
4885;SDS011;2457;51.788;6.136;2022-07-23T01:46:30;6.77;;;3.43;;
4885;SDS011;2457;51.788;6.136;2022-07-23T01:48:58;6.27;;;2.83;;
4885;SDS011;2457;51.788;6.136;2022-07-23T01:51:25;5.77;;;3.13;;
4885;SDS011;2457;51.788;6.136;2022-07-23T01:53:52;6.00;;;2.83;;
4885;SDS011;2457;51.788;6.136;2022-07-23T01:56:19;4.70;;;2.57;;
4885;SDS011;2457;51.788;6.136;2022-07-23T01:58:47;5.03;;;2.77;;
4885;SDS011;2457;51.788;6.136;2022-07-23T02:01:15;6.40;;;2.93;;
4885;SDS011;2457;51.788;6.136;2022-07-23T02:03:42;6.60;;;2.57;;
4885;SDS011;2457;51.788;6.136;2022-07-23T02:06:09;6.60;;;2.57;;
4885;SDS011;2457;51.788;6.136;2022-07-23T02:08:37;5.80;;;2.90;;
4885;SDS011;2457;51.788;6.136;2022-07-23T02:11:04;5.10;;;3.00;;
4885;SDS011;2457;51.788;6.136;2022-07-23T02:13:31;6.70;;;2.70;;
4885;SDS011;2457;51.788;6.136;2022-07-23T02:15:58;7.87;;;2.50;;
4885;SDS011;2457;51.788;6.136;2022-07-23T02:18:26;6.63;;;3.10;;
4885;SDS011;2457;51.788;6.136;2022-07-23T02:20:53;5.13;;;2.57;;
4885;SDS011;2457;51.788;6.136;2022-07-23T02:23:20;7.63;;;2.63;;
4885;SDS011;2457;51.788;6.136;2022-07-23T02:25:48;4.40;;;2.30;;
4885;SDS011;2457;51.788;6.136;2022-07-23T02:28:15;5.87;;;2.70;;
4885;SDS011;2457;51.788;6.136;2022-07-23T02:30:42;5.63;;;2.80;;
4885;SDS011;2457;51.788;6.136;2022-07-23T02:33:09;4.40;;;2.37;;
4885;SDS011;2457;51.788;6.136;2022-07-23T02:35:37;4.60;;;2.63;;
4885;SDS011;2457;51.788;6.136;2022-07-23T02:38:04;8.13;;;2.57;;
4885;SDS011;2457;51.788;6.136;2022-07-23T02:40:31;7.33;;;2.53;;
4885;SDS011;2457;51.788;6.136;2022-07-23T02:42:58;6.47;;;2.67;;
4885;SDS011;2457;51.788;6.136;2022-07-23T02:45:26;4.93;;;2.60;;
4885;SDS011;2457;51.788;6.136;2022-07-23T02:47:53;5.00;;;2.47;;
4885;SDS011;2457;51.788;6.136;2022-07-23T02:50:20;6.40;;;3.37;;
4885;SDS011;2457;51.788;6.136;2022-07-23T02:52:48;4.60;;;2.60;;
4885;SDS011;2457;51.788;6.136;2022-07-23T02:55:15;5.60;;;2.43;;
4885;SDS011;2457;51.788;6.136;2022-07-23T02:57:43;5.03;;;2.47;;
4885;SDS011;2457;51.788;6.136;2022-07-23T03:00:10;5.07;;;2.43;;
4885;SDS011;2457;51.788;6.136;2022-07-23T03:02:37;6.90;;;2.83;;
4885;SDS011;2457;51.788;6.136;2022-07-23T03:05:05;5.10;;;2.80;;
4885;SDS011;2457;51.788;6.136;2022-07-23T03:07:33;5.83;;;2.60;;
4885;SDS011;2457;51.788;6.136;2022-07-23T03:10:00;6.20;;;2.63;;
4885;SDS011;2457;51.788;6.136;2022-07-23T03:12:27;9.70;;;2.70;;
4885;SDS011;2457;51.788;6.136;2022-07-23T03:14:55;5.00;;;2.93;;
4885;SDS011;2457;51.788;6.136;2022-07-23T03:17:22;6.20;;;2.60;;
4885;SDS011;2457;51.788;6.136;2022-07-23T03:19:49;8.13;;;3.00;;
4885;SDS011;2457;51.788;6.136;2022-07-23T03:22:16;5.27;;;2.90;;
4885;SDS011;2457;51.788;6.136;2022-07-23T03:24:44;5.43;;;2.80;;
4885;SDS011;2457;51.788;6.136;2022-07-23T03:27:21;6.87;;;2.73;;
4885;SDS011;2457;51.788;6.136;2022-07-23T03:29:49;6.93;;;2.70;;
4885;SDS011;2457;51.788;6.136;2022-07-23T03:32:17;6.37;;;3.10;;
4885;SDS011;2457;51.788;6.136;2022-07-23T03:34:44;6.20;;;2.73;;
4885;SDS011;2457;51.788;6.136;2022-07-23T03:37:11;5.57;;;3.10;;
4885;SDS011;2457;51.788;6.136;2022-07-23T03:39:39;6.33;;;2.80;;
4885;SDS011;2457;51.788;6.136;2022-07-23T03:42:07;7.37;;;3.13;;
4885;SDS011;2457;51.788;6.136;2022-07-23T03:44:34;5.57;;;2.57;;
4885;SDS011;2457;51.788;6.136;2022-07-23T03:47:03;6.20;;;2.90;;
4885;SDS011;2457;51.788;6.136;2022-07-23T03:49:30;5.10;;;2.80;;
4885;SDS011;2457;51.788;6.136;2022-07-23T03:51:58;7.03;;;2.93;;
4885;SDS011;2457;51.788;6.136;2022-07-23T03:54:25;5.47;;;3.00;;
4885;SDS011;2457;51.788;6.136;2022-07-23T03:56:52;8.53;;;3.47;;
4885;SDS011;2457;51.788;6.136;2022-07-23T03:59:20;6.40;;;3.23;;
4885;SDS011;2457;51.788;6.136;2022-07-23T04:01:47;5.80;;;3.17;;
4885;SDS011;2457;51.788;6.136;2022-07-23T04:04:14;6.93;;;3.30;;
4885;SDS011;2457;51.788;6.136;2022-07-23T04:06:42;6.10;;;3.43;;
4885;SDS011;2457;51.788;6.136;2022-07-23T04:09:09;7.27;;;3.10;;
4885;SDS011;2457;51.788;6.136;2022-07-23T04:11:36;7.00;;;3.10;;
4885;SDS011;2457;51.788;6.136;2022-07-23T04:14:04;6.60;;;3.17;;
4885;SDS011;2457;51.788;6.136;2022-07-23T04:16:31;5.40;;;2.90;;
4885;SDS011;2457;51.788;6.136;2022-07-23T04:18:58;6.77;;;2.67;;
4885;SDS011;2457;51.788;6.136;2022-07-23T04:21:25;6.77;;;3.30;;
4885;SDS011;2457;51.788;6.136;2022-07-23T04:23:53;6.10;;;3.03;;
4885;SDS011;2457;51.788;6.136;2022-07-23T04:26:20;5.30;;;3.17;;
4885;SDS011;2457;51.788;6.136;2022-07-23T04:28:47;7.50;;;3.50;;
4885;SDS011;2457;51.788;6.136;2022-07-23T04:31:14;7.10;;;3.43;;
4885;SDS011;2457;51.788;6.136;2022-07-23T04:33:42;7.83;;;3.50;;
4885;SDS011;2457;51.788;6.136;2022-07-23T04:36:09;6.83;;;3.47;;
4885;SDS011;2457;51.788;6.136;2022-07-23T04:38:36;8.20;;;3.30;;
4885;SDS011;2457;51.788;6.136;2022-07-23T04:41:03;6.57;;;3.40;;
4885;SDS011;2457;51.788;6.136;2022-07-23T04:43:31;9.07;;;3.70;;
4885;SDS011;2457;51.788;6.136;2022-07-23T04:45:58;5.90;;;3.30;;
4885;SDS011;2457;51.788;6.136;2022-07-23T04:48:25;6.90;;;3.20;;
4885;SDS011;2457;51.788;6.136;2022-07-23T04:50:53;6.70;;;3.17;;
4885;SDS011;2457;51.788;6.136;2022-07-23T04:53:20;9.13;;;3.30;;
4885;SDS011;2457;51.788;6.136;2022-07-23T04:55:47;7.53;;;3.80;;
4885;SDS011;2457;51.788;6.136;2022-07-23T04:58:14;6.50;;;3.60;;
4885;SDS011;2457;51.788;6.136;2022-07-23T05:00:42;6.90;;;3.63;;
4885;SDS011;2457;51.788;6.136;2022-07-23T05:03:09;6.50;;;3.40;;
4885;SDS011;2457;51.788;6.136;2022-07-23T05:05:36;7.97;;;3.77;;
4885;SDS011;2457;51.788;6.136;2022-07-23T05:08:04;7.20;;;3.73;;
4885;SDS011;2457;51.788;6.136;2022-07-23T05:10:31;7.90;;;3.10;;
4885;SDS011;2457;51.788;6.136;2022-07-23T05:12:58;7.00;;;3.60;;
4885;SDS011;2457;51.788;6.136;2022-07-23T05:15:25;7.30;;;3.83;;
4885;SDS011;2457;51.788;6.136;2022-07-23T05:17:53;6.70;;;3.40;;
4885;SDS011;2457;51.788;6.136;2022-07-23T05:20:20;6.53;;;3.33;;
4885;SDS011;2457;51.788;6.136;2022-07-23T05:22:47;6.73;;;3.30;;
4885;SDS011;2457;51.788;6.136;2022-07-23T05:25:14;6.23;;;3.60;;
4885;SDS011;2457;51.788;6.136;2022-07-23T05:27:42;8.43;;;3.77;;
4885;SDS011;2457;51.788;6.136;2022-07-23T05:30:09;7.60;;;3.77;;
4885;SDS011;2457;51.788;6.136;2022-07-23T05:32:37;10.03;;;3.90;;
4885;SDS011;2457;51.788;6.136;2022-07-23T05:35:05;12.83;;;3.70;;
4885;SDS011;2457;51.788;6.136;2022-07-23T05:37:32;6.53;;;3.70;;
4885;SDS011;2457;51.788;6.136;2022-07-23T05:40:03;8.00;;;3.77;;
4885;SDS011;2457;51.788;6.136;2022-07-23T05:42:28;8.10;;;4.17;;
4885;SDS011;2457;51.788;6.136;2022-07-23T05:44:56;9.57;;;4.57;;
4885;SDS011;2457;51.788;6.136;2022-07-23T05:47:23;14.53;;;4.20;;
4885;SDS011;2457;51.788;6.136;2022-07-23T05:49:50;7.43;;;3.67;;
4885;SDS011;2457;51.788;6.136;2022-07-23T05:52:17;8.17;;;3.53;;
4885;SDS011;2457;51.788;6.136;2022-07-23T05:54:45;6.23;;;3.63;;
4885;SDS011;2457;51.788;6.136;2022-07-23T05:57:12;9.20;;;4.13;;
4885;SDS011;2457;51.788;6.136;2022-07-23T05:59:39;8.50;;;4.47;;
4885;SDS011;2457;51.788;6.136;2022-07-23T06:02:06;6.40;;;3.53;;
4885;SDS011;2457;51.788;6.136;2022-07-23T06:04:34;9.50;;;4.03;;
4885;SDS011;2457;51.788;6.136;2022-07-23T06:07:01;6.90;;;3.80;;
4885;SDS011;2457;51.788;6.136;2022-07-23T06:09:28;7.70;;;3.70;;
4885;SDS011;2457;51.788;6.136;2022-07-23T06:11:55;5.90;;;3.20;;
4885;SDS011;2457;51.788;6.136;2022-07-23T06:14:23;14.23;;;3.80;;
4885;SDS011;2457;51.788;6.136;2022-07-23T06:16:50;7.80;;;3.70;;
4885;SDS011;2457;51.788;6.136;2022-07-23T06:19:17;7.60;;;3.93;;
4885;SDS011;2457;51.788;6.136;2022-07-23T06:21:44;8.70;;;3.70;;
4885;SDS011;2457;51.788;6.136;2022-07-23T06:24:12;8.20;;;3.77;;
4885;SDS011;2457;51.788;6.136;2022-07-23T06:26:39;7.17;;;3.53;;
4885;SDS011;2457;51.788;6.136;2022-07-23T06:29:06;5.83;;;3.07;;
4885;SDS011;2457;51.788;6.136;2022-07-23T06:31:33;7.87;;;3.90;;
4885;SDS011;2457;51.788;6.136;2022-07-23T06:34:01;11.43;;;3.67;;
4885;SDS011;2457;51.788;6.136;2022-07-23T06:36:28;6.10;;;3.00;;
4885;SDS011;2457;51.788;6.136;2022-07-23T06:38:55;7.70;;;3.30;;
4885;SDS011;2457;51.788;6.136;2022-07-23T06:41:23;5.30;;;3.20;;
4885;SDS011;2457;51.788;6.136;2022-07-23T06:43:50;4.77;;;2.47;;
4885;SDS011;2457;51.788;6.136;2022-07-23T06:46:17;6.40;;;3.03;;
4885;SDS011;2457;51.788;6.136;2022-07-23T06:48:45;5.43;;;3.10;;
4885;SDS011;2457;51.788;6.136;2022-07-23T06:51:12;6.80;;;2.70;;
4885;SDS011;2457;51.788;6.136;2022-07-23T06:53:39;5.10;;;2.60;;
4885;SDS011;2457;51.788;6.136;2022-07-23T06:56:07;5.20;;;2.67;;
4885;SDS011;2457;51.788;6.136;2022-07-23T06:58:34;8.87;;;2.47;;
4885;SDS011;2457;51.788;6.136;2022-07-23T07:01:02;7.10;;;3.00;;
4885;SDS011;2457;51.788;6.136;2022-07-23T07:03:29;5.53;;;2.33;;
4885;SDS011;2457;51.788;6.136;2022-07-23T07:05:56;5.33;;;2.33;;
4885;SDS011;2457;51.788;6.136;2022-07-23T07:08:23;5.97;;;2.67;;
4885;SDS011;2457;51.788;6.136;2022-07-23T07:10:51;4.07;;;2.17;;
4885;SDS011;2457;51.788;6.136;2022-07-23T07:13:18;4.77;;;2.30;;
4885;SDS011;2457;51.788;6.136;2022-07-23T07:15:45;6.57;;;2.83;;
4885;SDS011;2457;51.788;6.136;2022-07-23T07:18:13;6.47;;;2.57;;
4885;SDS011;2457;51.788;6.136;2022-07-23T07:20:40;5.40;;;2.73;;
4885;SDS011;2457;51.788;6.136;2022-07-23T07:23:07;4.83;;;2.30;;
4885;SDS011;2457;51.788;6.136;2022-07-23T07:25:35;5.67;;;2.80;;
4885;SDS011;2457;51.788;6.136;2022-07-23T07:28:02;4.63;;;2.57;;
4885;SDS011;2457;51.788;6.136;2022-07-23T07:30:29;6.60;;;3.13;;
4885;SDS011;2457;51.788;6.136;2022-07-23T07:32:57;4.70;;;2.20;;
4885;SDS011;2457;51.788;6.136;2022-07-23T07:35:24;4.37;;;2.00;;
4885;SDS011;2457;51.788;6.136;2022-07-23T07:37:52;4.20;;;2.10;;
4885;SDS011;2457;51.788;6.136;2022-07-23T07:40:19;3.67;;;2.00;;
4885;SDS011;2457;51.788;6.136;2022-07-23T07:42:51;7.30;;;2.73;;
4885;SDS011;2457;51.788;6.136;2022-07-23T07:45:15;6.70;;;2.70;;
4885;SDS011;2457;51.788;6.136;2022-07-23T07:47:42;5.57;;;2.60;;
4885;SDS011;2457;51.788;6.136;2022-07-23T07:50:10;8.13;;;2.60;;
4885;SDS011;2457;51.788;6.136;2022-07-23T07:52:37;5.00;;;2.77;;
4885;SDS011;2457;51.788;6.136;2022-07-23T07:55:05;6.13;;;2.40;;
4885;SDS011;2457;51.788;6.136;2022-07-23T07:57:33;4.43;;;2.10;;
4885;SDS011;2457;51.788;6.136;2022-07-23T08:00:00;4.90;;;1.93;;
4885;SDS011;2457;51.788;6.136;2022-07-23T08:02:27;4.40;;;2.33;;
4885;SDS011;2457;51.788;6.136;2022-07-23T08:04:55;5.70;;;2.70;;
4885;SDS011;2457;51.788;6.136;2022-07-23T08:07:23;5.80;;;2.33;;
4885;SDS011;2457;51.788;6.136;2022-07-23T08:09:50;6.83;;;2.17;;
4885;SDS011;2457;51.788;6.136;2022-07-23T08:12:18;7.10;;;2.30;;
4885;SDS011;2457;51.788;6.136;2022-07-23T08:14:45;6.13;;;2.60;;
4885;SDS011;2457;51.788;6.136;2022-07-23T08:17:12;5.00;;;2.33;;
4885;SDS011;2457;51.788;6.136;2022-07-23T08:19:39;5.20;;;2.07;;
4885;SDS011;2457;51.788;6.136;2022-07-23T08:22:07;6.73;;;2.20;;
4885;SDS011;2457;51.788;6.136;2022-07-23T08:24:34;5.17;;;1.90;;
4885;SDS011;2457;51.788;6.136;2022-07-23T08:27:01;5.73;;;2.30;;
4885;SDS011;2457;51.788;6.136;2022-07-23T08:29:29;5.57;;;2.07;;
4885;SDS011;2457;51.788;6.136;2022-07-23T08:31:56;4.37;;;2.20;;
4885;SDS011;2457;51.788;6.136;2022-07-23T08:34:23;10.70;;;2.60;;
4885;SDS011;2457;51.788;6.136;2022-07-23T08:36:51;4.67;;;2.13;;
4885;SDS011;2457;51.788;6.136;2022-07-23T08:39:18;5.37;;;2.17;;
4885;SDS011;2457;51.788;6.136;2022-07-23T08:41:45;6.20;;;2.20;;
4885;SDS011;2457;51.788;6.136;2022-07-23T08:44:15;8.20;;;2.57;;
4885;SDS011;2457;51.788;6.136;2022-07-23T08:46:43;4.90;;;2.50;;
4885;SDS011;2457;51.788;6.136;2022-07-23T08:49:11;7.10;;;2.50;;
4885;SDS011;2457;51.788;6.136;2022-07-23T08:51:40;6.70;;;2.43;;
4885;SDS011;2457;51.788;6.136;2022-07-23T08:54:07;4.83;;;2.20;;
4885;SDS011;2457;51.788;6.136;2022-07-23T08:56:34;4.37;;;2.40;;
4885;SDS011;2457;51.788;6.136;2022-07-23T08:59:02;4.93;;;2.17;;
4885;SDS011;2457;51.788;6.136;2022-07-23T09:01:30;5.03;;;2.20;;
4885;SDS011;2457;51.788;6.136;2022-07-23T09:03:57;5.20;;;2.87;;
4885;SDS011;2457;51.788;6.136;2022-07-23T09:06:24;3.93;;;2.07;;
4885;SDS011;2457;51.788;6.136;2022-07-23T09:08:51;9.13;;;2.73;;
4885;SDS011;2457;51.788;6.136;2022-07-23T09:11:19;5.00;;;1.97;;
4885;SDS011;2457;51.788;6.136;2022-07-23T09:13:50;7.17;;;2.30;;
4885;SDS011;2457;51.788;6.136;2022-07-23T09:16:29;5.93;;;2.50;;
4885;SDS011;2457;51.788;6.136;2022-07-23T09:18:57;5.30;;;2.80;;
4885;SDS011;2457;51.788;6.136;2022-07-23T09:21:31;5.37;;;2.23;;
4885;SDS011;2457;51.788;6.136;2022-07-23T09:26:41;6.27;;;2.67;;
4885;SDS011;2457;51.788;6.136;2022-07-23T09:29:18;5.43;;;2.43;;
4885;SDS011;2457;51.788;6.136;2022-07-23T09:31:51;9.63;;;2.87;;
4885;SDS011;2457;51.788;6.136;2022-07-23T09:34:25;5.33;;;2.37;;
4885;SDS011;2457;51.788;6.136;2022-07-23T09:37:09;4.50;;;2.50;;
4885;SDS011;2457;51.788;6.136;2022-07-23T09:39:36;9.80;;;2.50;;
4885;SDS011;2457;51.788;6.136;2022-07-23T09:44:45;4.43;;;2.30;;
4885;SDS011;2457;51.788;6.136;2022-07-23T09:47:13;8.23;;;2.40;;
4885;SDS011;2457;51.788;6.136;2022-07-23T09:49:40;5.60;;;2.33;;
4885;SDS011;2457;51.788;6.136;2022-07-23T09:52:09;6.73;;;2.47;;
4885;SDS011;2457;51.788;6.136;2022-07-23T09:54:37;4.17;;;1.93;;
4885;SDS011;2457;51.788;6.136;2022-07-23T09:57:06;19.63;;;3.30;;
4885;SDS011;2457;51.788;6.136;2022-07-23T09:59:36;4.67;;;2.30;;
4885;SDS011;2457;51.788;6.136;2022-07-23T10:02:05;4.60;;;2.43;;
4885;SDS011;2457;51.788;6.136;2022-07-23T10:04:33;5.57;;;2.80;;
4885;SDS011;2457;51.788;6.136;2022-07-23T10:07:02;9.53;;;2.50;;
4885;SDS011;2457;51.788;6.136;2022-07-23T10:09:30;5.73;;;2.40;;
4885;SDS011;2457;51.788;6.136;2022-07-23T10:12:00;3.50;;;1.80;;
4885;SDS011;2457;51.788;6.136;2022-07-23T10:14:29;4.63;;;1.50;;
4885;SDS011;2457;51.788;6.136;2022-07-23T10:16:58;4.60;;;1.70;;
4885;SDS011;2457;51.788;6.136;2022-07-23T10:19:25;4.27;;;1.90;;
4885;SDS011;2457;51.788;6.136;2022-07-23T10:21:55;5.10;;;1.67;;
4885;SDS011;2457;51.788;6.136;2022-07-23T10:29:45;4.90;;;2.27;;
4885;SDS011;2457;51.788;6.136;2022-07-23T10:32:14;4.10;;;2.00;;
4885;SDS011;2457;51.788;6.136;2022-07-23T10:34:59;6.30;;;2.20;;
4885;SDS011;2457;51.788;6.136;2022-07-23T10:37:22;4.17;;;1.93;;
4885;SDS011;2457;51.788;6.136;2022-07-23T10:42:35;4.53;;;2.20;;
4885;SDS011;2457;51.788;6.136;2022-07-23T10:45:21;8.30;;;2.47;;
4885;SDS011;2457;51.788;6.136;2022-07-23T10:47:32;3.50;;;1.70;;
4885;SDS011;2457;51.788;6.136;2022-07-23T10:50:21;3.63;;;1.70;;
4885;SDS011;2457;51.788;6.136;2022-07-23T10:53:11;3.90;;;1.70;;
4885;SDS011;2457;51.788;6.136;2022-07-23T10:57:55;6.53;;;2.30;;
4885;SDS011;2457;51.788;6.136;2022-07-23T11:00:24;5.73;;;2.40;;
4885;SDS011;2457;51.788;6.136;2022-07-23T11:02:57;4.77;;;1.70;;
4885;SDS011;2457;51.788;6.136;2022-07-23T11:05:24;3.70;;;1.90;;
4885;SDS011;2457;51.788;6.136;2022-07-23T11:10:38;6.47;;;2.40;;
4885;SDS011;2457;51.788;6.136;2022-07-23T11:19:17;3.20;;;1.40;;
4885;SDS011;2457;51.788;6.136;2022-07-23T11:37:08;4.37;;;1.77;;
4885;SDS011;2457;51.788;6.136;2022-07-23T11:39:36;4.10;;;1.90;;
4885;SDS011;2457;51.788;6.136;2022-07-23T11:42:05;4.40;;;1.90;;
4885;SDS011;2457;51.788;6.136;2022-07-23T11:44:37;8.50;;;2.13;;
4885;SDS011;2457;51.788;6.136;2022-07-23T11:47:05;5.30;;;2.00;;
4885;SDS011;2457;51.788;6.136;2022-07-23T11:49:33;3.60;;;1.70;;
4885;SDS011;2457;51.788;6.136;2022-07-23T11:54:32;4.27;;;1.80;;
4885;SDS011;2457;51.788;6.136;2022-07-23T11:57:01;5.20;;;2.10;;
4885;SDS011;2457;51.788;6.136;2022-07-23T11:59:31;3.47;;;1.70;;
4885;SDS011;2457;51.788;6.136;2022-07-23T12:02:01;5.70;;;2.50;;
4885;SDS011;2457;51.788;6.136;2022-07-23T12:04:50;5.63;;;2.43;;
4885;SDS011;2457;51.788;6.136;2022-07-23T12:06:57;6.23;;;2.10;;
4885;SDS011;2457;51.788;6.136;2022-07-23T12:09:24;5.30;;;1.87;;
4885;SDS011;2457;51.788;6.136;2022-07-23T12:11:59;3.90;;;1.80;;
4885;SDS011;2457;51.788;6.136;2022-07-23T12:14:26;6.37;;;1.93;;
4885;SDS011;2457;51.788;6.136;2022-07-23T12:17:06;4.37;;;1.87;;
4885;SDS011;2457;51.788;6.136;2022-07-23T12:19:33;4.43;;;1.93;;
4885;SDS011;2457;51.788;6.136;2022-07-23T12:22:01;5.13;;;1.50;;
4885;SDS011;2457;51.788;6.136;2022-07-23T12:24:28;4.50;;;1.93;;
4885;SDS011;2457;51.788;6.136;2022-07-23T12:27:11;3.60;;;1.73;;
4885;SDS011;2457;51.788;6.136;2022-07-23T12:29:39;3.73;;;1.63;;
4885;SDS011;2457;51.788;6.136;2022-07-23T12:32:26;4.80;;;2.10;;
4885;SDS011;2457;51.788;6.136;2022-07-23T12:34:38;3.80;;;1.53;;
4885;SDS011;2457;51.788;6.136;2022-07-23T12:37:05;4.40;;;2.10;;
4885;SDS011;2457;51.788;6.136;2022-07-23T12:39:32;5.13;;;1.43;;
4885;SDS011;2457;51.788;6.136;2022-07-23T12:42:00;4.43;;;1.80;;
4885;SDS011;2457;51.788;6.136;2022-07-23T12:44:27;5.43;;;1.50;;
4885;SDS011;2457;51.788;6.136;2022-07-23T12:46:54;5.80;;;2.10;;
4885;SDS011;2457;51.788;6.136;2022-07-23T12:49:25;4.43;;;2.10;;
4885;SDS011;2457;51.788;6.136;2022-07-23T12:51:52;4.63;;;1.97;;
4885;SDS011;2457;51.788;6.136;2022-07-23T12:54:26;4.37;;;1.80;;
4885;SDS011;2457;51.788;6.136;2022-07-23T12:56:48;4.07;;;1.70;;
4885;SDS011;2457;51.788;6.136;2022-07-23T12:59:16;6.50;;;1.93;;
4885;SDS011;2457;51.788;6.136;2022-07-23T13:01:43;4.60;;;1.60;;
4885;SDS011;2457;51.788;6.136;2022-07-23T13:04:16;5.73;;;2.00;;
4885;SDS011;2457;51.788;6.136;2022-07-23T13:06:45;4.53;;;1.70;;
4885;SDS011;2457;51.788;6.136;2022-07-23T13:09:14;3.80;;;1.67;;
4885;SDS011;2457;51.788;6.136;2022-07-23T13:11:42;4.30;;;2.13;;
4885;SDS011;2457;51.788;6.136;2022-07-23T13:14:09;3.60;;;1.73;;
4885;SDS011;2457;51.788;6.136;2022-07-23T13:16:37;4.73;;;2.20;;
4885;SDS011;2457;51.788;6.136;2022-07-23T13:19:04;6.50;;;1.93;;
4885;SDS011;2457;51.788;6.136;2022-07-23T13:21:32;7.17;;;1.97;;
4885;SDS011;2457;51.788;6.136;2022-07-23T13:24:00;4.80;;;2.00;;
4885;SDS011;2457;51.788;6.136;2022-07-23T13:26:27;4.13;;;1.73;;
4885;SDS011;2457;51.788;6.136;2022-07-23T13:28:55;5.03;;;2.00;;
4885;SDS011;2457;51.788;6.136;2022-07-23T13:31:22;5.70;;;1.83;;
4885;SDS011;2457;51.788;6.136;2022-07-23T13:33:49;5.67;;;2.43;;
4885;SDS011;2457;51.788;6.136;2022-07-23T13:36:16;4.77;;;2.50;;
4885;SDS011;2457;51.788;6.136;2022-07-23T13:38:44;4.40;;;2.40;;
4885;SDS011;2457;51.788;6.136;2022-07-23T13:41:11;3.80;;;1.57;;
4885;SDS011;2457;51.788;6.136;2022-07-23T13:43:38;3.60;;;1.77;;
4885;SDS011;2457;51.788;6.136;2022-07-23T13:46:06;4.07;;;1.90;;
4885;SDS011;2457;51.788;6.136;2022-07-23T13:48:33;3.80;;;1.60;;
4885;SDS011;2457;51.788;6.136;2022-07-23T13:51:00;3.40;;;1.67;;
4885;SDS011;2457;51.788;6.136;2022-07-23T13:53:27;5.87;;;1.90;;
4885;SDS011;2457;51.788;6.136;2022-07-23T13:55:55;5.17;;;1.77;;
4885;SDS011;2457;51.788;6.136;2022-07-23T13:58:23;4.60;;;2.07;;
4885;SDS011;2457;51.788;6.136;2022-07-23T14:00:52;3.63;;;1.70;;
4885;SDS011;2457;51.788;6.136;2022-07-23T14:03:20;7.03;;;2.20;;
4885;SDS011;2457;51.788;6.136;2022-07-23T14:05:51;8.00;;;2.53;;
4885;SDS011;2457;51.788;6.136;2022-07-23T14:08:19;3.80;;;2.00;;
4885;SDS011;2457;51.788;6.136;2022-07-23T14:10:47;4.30;;;2.03;;
4885;SDS011;2457;51.788;6.136;2022-07-23T14:13:14;3.70;;;2.00;;
4885;SDS011;2457;51.788;6.136;2022-07-23T14:15:41;4.10;;;2.00;;
4885;SDS011;2457;51.788;6.136;2022-07-23T14:18:09;4.87;;;2.17;;
4885;SDS011;2457;51.788;6.136;2022-07-23T14:20:36;7.70;;;2.73;;
4885;SDS011;2457;51.788;6.136;2022-07-23T14:23:03;5.07;;;2.70;;
4885;SDS011;2457;51.788;6.136;2022-07-23T14:25:30;5.60;;;2.40;;
4885;SDS011;2457;51.788;6.136;2022-07-23T14:27:58;5.13;;;2.20;;
4885;SDS011;2457;51.788;6.136;2022-07-23T14:30:25;5.30;;;2.20;;
4885;SDS011;2457;51.788;6.136;2022-07-23T14:32:52;5.40;;;2.27;;
4885;SDS011;2457;51.788;6.136;2022-07-23T14:35:20;6.97;;;2.10;;
4885;SDS011;2457;51.788;6.136;2022-07-23T14:37:47;5.13;;;2.30;;
4885;SDS011;2457;51.788;6.136;2022-07-23T14:40:14;3.70;;;1.90;;
4885;SDS011;2457;51.788;6.136;2022-07-23T14:42:42;3.73;;;2.00;;
4885;SDS011;2457;51.788;6.136;2022-07-23T14:45:09;5.90;;;2.40;;
4885;SDS011;2457;51.788;6.136;2022-07-23T14:47:36;4.13;;;1.87;;
4885;SDS011;2457;51.788;6.136;2022-07-23T14:50:04;3.93;;;1.83;;
4885;SDS011;2457;51.788;6.136;2022-07-23T14:52:31;4.03;;;2.10;;
4885;SDS011;2457;51.788;6.136;2022-07-23T14:54:59;6.07;;;2.30;;
4885;SDS011;2457;51.788;6.136;2022-07-23T14:57:26;3.93;;;2.17;;
4885;SDS011;2457;51.788;6.136;2022-07-23T14:59:53;8.27;;;2.00;;
4885;SDS011;2457;51.788;6.136;2022-07-23T15:02:20;5.70;;;1.73;;
4885;SDS011;2457;51.788;6.136;2022-07-23T15:04:48;4.73;;;2.17;;
4885;SDS011;2457;51.788;6.136;2022-07-23T15:07:15;8.93;;;2.50;;
4885;SDS011;2457;51.788;6.136;2022-07-23T15:09:42;5.23;;;1.93;;
4885;SDS011;2457;51.788;6.136;2022-07-23T15:12:09;6.30;;;2.23;;
4885;SDS011;2457;51.788;6.136;2022-07-23T15:14:37;4.90;;;2.50;;
4885;SDS011;2457;51.788;6.136;2022-07-23T15:17:04;5.73;;;2.10;;
4885;SDS011;2457;51.788;6.136;2022-07-23T15:19:31;4.70;;;2.10;;
4885;SDS011;2457;51.788;6.136;2022-07-23T15:21:58;4.40;;;1.90;;
4885;SDS011;2457;51.788;6.136;2022-07-23T15:24:26;5.47;;;2.17;;
4885;SDS011;2457;51.788;6.136;2022-07-23T15:26:53;4.97;;;2.07;;
4885;SDS011;2457;51.788;6.136;2022-07-23T15:29:20;4.50;;;2.60;;
4885;SDS011;2457;51.788;6.136;2022-07-23T15:31:48;4.10;;;2.10;;
4885;SDS011;2457;51.788;6.136;2022-07-23T15:34:15;4.97;;;2.03;;
4885;SDS011;2457;51.788;6.136;2022-07-23T15:36:42;5.67;;;2.07;;
4885;SDS011;2457;51.788;6.136;2022-07-23T15:39:09;4.10;;;1.90;;
4885;SDS011;2457;51.788;6.136;2022-07-23T15:41:37;4.50;;;1.97;;
4885;SDS011;2457;51.788;6.136;2022-07-23T15:44:04;7.30;;;1.90;;
4885;SDS011;2457;51.788;6.136;2022-07-23T15:46:31;5.50;;;2.20;;
4885;SDS011;2457;51.788;6.136;2022-07-23T15:48:58;4.33;;;2.10;;
4885;SDS011;2457;51.788;6.136;2022-07-23T15:51:26;4.57;;;1.90;;
4885;SDS011;2457;51.788;6.136;2022-07-23T15:53:53;5.37;;;2.23;;
4885;SDS011;2457;51.788;6.136;2022-07-23T15:56:20;4.40;;;2.00;;
4885;SDS011;2457;51.788;6.136;2022-07-23T15:58:48;6.23;;;1.87;;
4885;SDS011;2457;51.788;6.136;2022-07-23T16:01:15;4.30;;;1.90;;